BAW493U LXGB-EGLL
Flight info
| Callsign | BAW493U |
|---|---|
| Flight time | N/A |
| Altitude | 36000 |
| Route | PIMOS N869 BLN N865 VTB N867 NENEM DCT YURZI DCT ERIGA DCT REVTU/N0456F340 UP87 ROXOG |
| Aircraft | A320/M-SDE3FGHIRWY/LB1 |
Departure
| Time | 2026-05-01 15:01 |
|---|---|
| Airport | Gibraltar Airport (LXGB) |
Arrival
| Time | N/A |
|---|---|
| Airport | London Heathrow Airport (EGLL) |
| Time | Latitude | Longitude | Altitude | Speed | Heading |
|---|---|---|---|---|---|
| 2026-05-01 14:24 | 36.15306 | -5.34628 | 17 ft | 0 kts | 359° |
| 2026-05-01 14:52 | 36.15289 | -5.34628 | 17 ft | 3 kts | 359° |
| 2026-05-01 14:52 | 36.15270 | -5.34627 | 17 ft | 3 kts | 358° |
| 2026-05-01 14:52 | 36.15235 | -5.34612 | 21 ft | 3 kts | 300° |
| 2026-05-01 14:53 | 36.15230 | -5.34595 | 24 ft | 1 kts | 268° |
| 2026-05-01 14:53 | 36.15230 | -5.34593 | 23 ft | 1 kts | 267° |
| 2026-05-01 14:56 | 36.15230 | -5.34597 | 19 ft | 3 kts | 267° |
| 2026-05-01 14:57 | 36.15229 | -5.34625 | 21 ft | 4 kts | 268° |
| 2026-05-01 14:57 | 36.15182 | -5.34680 | 23 ft | 9 kts | 189° |
| 2026-05-01 14:57 | 36.15132 | -5.34729 | 21 ft | 11 kts | 262° |
| 2026-05-01 14:58 | 36.15128 | -5.34845 | 22 ft | 17 kts | 268° |
| 2026-05-01 14:58 | 36.15123 | -5.34993 | 24 ft | 18 kts | 268° |
| 2026-05-01 14:58 | 36.15117 | -5.35156 | 23 ft | 20 kts | 266° |
| 2026-05-01 14:58 | 36.15110 | -5.35339 | 23 ft | 22 kts | 268° |
| 2026-05-01 14:59 | 36.15104 | -5.35539 | 21 ft | 25 kts | 268° |
| 2026-05-01 14:59 | 36.15095 | -5.35771 | 18 ft | 25 kts | 266° |
| 2026-05-01 14:59 | 36.15065 | -5.35904 | 18 ft | 12 kts | 256° |
| 2026-05-01 14:59 | 36.15094 | -5.35937 | 17 ft | 5 kts | 58° |
| 2026-05-01 15:00 | 36.15091 | -5.35919 | 17 ft | 0 kts | 91° |
| 2026-05-01 15:00 | 36.15093 | -5.35813 | 18 ft | 48 kts | 88° |
| 2026-05-01 15:01 | 36.15118 | -5.35019 | 24 ft | 129 kts | 88° |
| 2026-05-01 15:01 | 36.15159 | -5.33808 | 295 ft | 162 kts | 88° |
| 2026-05-01 15:01 | 36.15200 | -5.32430 | 1173 ft | 163 kts | 89° |
| 2026-05-01 15:01 | 36.15243 | -5.30996 | 1702 ft | 174 kts | 87° |
| 2026-05-01 15:02 | 36.15290 | -5.29410 | 1962 ft | 196 kts | 89° |
| 2026-05-01 15:02 | 36.15306 | -5.28266 | 2157 ft | 209 kts | 89° |
| 2026-05-01 15:02 | 36.15330 | -5.25694 | 2616 ft | 241 kts | 89° |
| 2026-05-01 15:02 | 36.15333 | -5.23537 | 3226 ft | 258 kts | 91° |
| 2026-05-01 15:03 | 36.15304 | -5.21291 | 4108 ft | 262 kts | 91° |
| 2026-05-01 15:03 | 36.15275 | -5.19027 | 5054 ft | 264 kts | 92° |
| 2026-05-01 15:03 | 36.15247 | -5.16721 | 5909 ft | 269 kts | 92° |
| 2026-05-01 15:03 | 36.15218 | -5.14343 | 6492 ft | 287 kts | 92° |
| 2026-05-01 15:04 | 36.15197 | -5.11920 | 7538 ft | 277 kts | 92° |
| 2026-05-01 15:04 | 36.15194 | -5.09530 | 8402 ft | 281 kts | 92° |
| 2026-05-01 15:04 | 36.15213 | -5.07059 | 8802 ft | 302 kts | 91° |
| 2026-05-01 15:04 | 36.15227 | -5.04478 | 9777 ft | 295 kts | 92° |
| 2026-05-01 15:05 | 36.15190 | -5.01911 | 10459 ft | 304 kts | 94° |
| 2026-05-01 15:05 | 36.15128 | -4.99206 | 10735 ft | 326 kts | 93° |
| 2026-05-01 15:05 | 36.15103 | -4.96319 | 10986 ft | 346 kts | 88° |
| 2026-05-01 15:05 | 36.15513 | -4.93295 | 11248 ft | 365 kts | 74° |
| 2026-05-01 15:06 | 36.16505 | -4.90333 | 11609 ft | 379 kts | 60° |
| 2026-05-01 15:06 | 36.18044 | -4.87662 | 12145 ft | 385 kts | 47° |
| 2026-05-01 15:06 | 36.20049 | -4.85447 | 12738 ft | 389 kts | 34° |
| 2026-05-01 15:06 | 36.22357 | -4.83655 | 13366 ft | 392 kts | 30° |
| 2026-05-01 15:07 | 36.24680 | -4.81873 | 14029 ft | 394 kts | 31° |
| 2026-05-01 15:07 | 36.27007 | -4.80050 | 14594 ft | 397 kts | 31° |
| 2026-05-01 15:07 | 36.29345 | -4.78198 | 15143 ft | 400 kts | 31° |
| 2026-05-01 15:07 | 36.31695 | -4.76332 | 15678 ft | 403 kts | 30° |
| 2026-05-01 15:08 | 36.34069 | -4.74449 | 16215 ft | 406 kts | 30° |
| 2026-05-01 15:08 | 36.36467 | -4.72554 | 16751 ft | 409 kts | 30° |
| 2026-05-01 15:08 | 36.38879 | -4.70652 | 17295 ft | 413 kts | 29° |
| 2026-05-01 15:08 | 36.41298 | -4.68753 | 17844 ft | 416 kts | 29° |
| 2026-05-01 15:09 | 36.43741 | -4.66842 | 18393 ft | 419 kts | 29° |
| 2026-05-01 15:09 | 36.46213 | -4.64907 | 18876 ft | 422 kts | 29° |
| 2026-05-01 15:09 | 36.48618 | -4.63013 | 19357 ft | 425 kts | 29° |
| 2026-05-01 15:09 | 36.51202 | -4.60971 | 19856 ft | 428 kts | 28° |
| 2026-05-01 15:10 | 36.53721 | -4.58979 | 20345 ft | 431 kts | 28° |
| 2026-05-01 15:10 | 36.58811 | -4.54943 | 21281 ft | 436 kts | 28° |
| 2026-05-01 15:10 | 36.61378 | -4.52905 | 21727 ft | 439 kts | 28° |
| 2026-05-01 15:11 | 36.63963 | -4.50855 | 22140 ft | 442 kts | 28° |
| 2026-05-01 15:11 | 36.69177 | -4.46721 | 22998 ft | 446 kts | 28° |
| 2026-05-01 15:11 | 36.71799 | -4.44638 | 23412 ft | 449 kts | 28° |
| 2026-05-01 15:12 | 36.74441 | -4.42537 | 23804 ft | 452 kts | 28° |
| 2026-05-01 15:12 | 36.79768 | -4.38292 | 24504 ft | 456 kts | 28° |
| 2026-05-01 15:12 | 36.82531 | -4.36362 | 24843 ft | 453 kts | 19° |
| 2026-05-01 15:13 | 36.91196 | -4.31632 | 25855 ft | 458 kts | 18° |
| 2026-05-01 15:14 | 36.97072 | -4.28418 | 26514 ft | 463 kts | 18° |
| 2026-05-01 15:14 | 37.00031 | -4.26797 | 26851 ft | 465 kts | 18° |
| 2026-05-01 15:14 | 37.05960 | -4.23529 | 27698 ft | 464 kts | 18° |
| 2026-05-01 15:15 | 37.11850 | -4.20276 | 28723 ft | 461 kts | 18° |
| 2026-05-01 15:15 | 37.17707 | -4.17055 | 29767 ft | 458 kts | 18° |
| 2026-05-01 15:16 | 37.23535 | -4.13849 | 30670 ft | 457 kts | 17° |
| 2026-05-01 15:16 | 37.29341 | -4.10639 | 31450 ft | 455 kts | 17° |
| 2026-05-01 15:17 | 37.35130 | -4.07428 | 32210 ft | 454 kts | 17° |
| 2026-05-01 15:18 | 37.43804 | -4.02607 | 33436 ft | 454 kts | 16° |
| 2026-05-01 15:18 | 37.46653 | -4.01021 | 33848 ft | 453 kts | 15° |
| 2026-05-01 15:19 | 37.55303 | -3.96205 | 34906 ft | 453 kts | 15° |
| 2026-05-01 15:19 | 37.61079 | -3.92981 | 35485 ft | 454 kts | 15° |
| 2026-05-01 15:19 | 37.63969 | -3.91369 | 35756 ft | 454 kts | 15° |
| 2026-05-01 15:20 | 37.69758 | -3.88136 | 36120 ft | 458 kts | 15° |
| 2026-05-01 15:20 | 37.72697 | -3.86496 | 36129 ft | 463 kts | 15° |
| 2026-05-01 15:21 | 37.78620 | -3.83177 | 36125 ft | 467 kts | 15° |
| 2026-05-01 15:21 | 37.84539 | -3.79838 | 36130 ft | 464 kts | 15° |
| 2026-05-01 15:22 | 37.93316 | -3.74886 | 36123 ft | 461 kts | 15° |
| 2026-05-01 15:22 | 37.99175 | -3.71586 | 36125 ft | 461 kts | 15° |
| 2026-05-01 15:23 | 38.05042 | -3.68277 | 36123 ft | 461 kts | 15° |
| 2026-05-01 15:23 | 38.10900 | -3.64959 | 36124 ft | 461 kts | 15° |
| 2026-05-01 15:24 | 38.16881 | -3.62435 | 36141 ft | 445 kts | 1° |
| 2026-05-01 15:24 | 38.22962 | -3.61729 | 36134 ft | 438 kts | 356° |
| 2026-05-01 15:25 | 38.29049 | -3.61146 | 36132 ft | 438 kts | 356° |
| 2026-05-01 15:25 | 38.35132 | -3.60555 | 36132 ft | 439 kts | 356° |
| 2026-05-01 15:26 | 38.40188 | -3.60066 | 36123 ft | 438 kts | 356° |
| 2026-05-01 15:26 | 38.47267 | -3.59372 | 36128 ft | 439 kts | 356° |
| 2026-05-01 15:27 | 38.52371 | -3.58867 | 36129 ft | 439 kts | 356° |
| 2026-05-01 15:28 | 38.61508 | -3.57989 | 36146 ft | 439 kts | 356° |
| 2026-05-01 15:28 | 38.67564 | -3.57394 | 36139 ft | 439 kts | 356° |
| 2026-05-01 15:29 | 38.76713 | -3.56492 | 36133 ft | 440 kts | 356° |
| 2026-05-01 15:30 | 38.88915 | -3.55304 | 36145 ft | 440 kts | 357° |
| 2026-05-01 15:31 | 39.07244 | -3.53500 | 36149 ft | 440 kts | 357° |
| 2026-05-01 15:32 | 39.19468 | -3.52284 | 36142 ft | 440 kts | 357° |
| 2026-05-01 15:34 | 39.37782 | -3.50458 | 36142 ft | 441 kts | 357° |